Sharbot Lake, Canada
Current Conditions -  °F | °C
As of 9:00 AM on Thursday 23 Oct 2014 (Local Time) from CYGK Reporting Station
Few Clouds Few Clouds  
Wind Chill: 40°   Ceiling: Unl
Heat Index: 46°   Visibility: 15mi
Dew Point: 36°   Wind: 15mph
Humidity: 66%   Direction: 20°NNE
Pressure: 30.07"   Gusts: 24mph
Location:  44.77°N, 76.68°W
Report Text: CYGK 231300Z 02013G21KT 15SM FEW025 08/02 A3007 RMK SC1 SLP183
Loading
Personal Weather Stations






























Interactive Weather Map
Tropical Storm Tracking
New forecast layout! Learn more

10-Day Weather Forecast

Advertisements
Track Severe Weather on mobile